sensor_id;sensor_type;location;lat;lon;timestamp;P1;durP1;ratioP1;P2;durP2;ratioP2
85877;SDS011;76393;44.098;3.072;2024-02-21T00:00:40;20.40;;;7.60;;
85877;SDS011;76393;44.098;3.072;2024-02-21T00:03:07;8.23;;;2.63;;
85877;SDS011;76393;44.098;3.072;2024-02-21T00:05:32;9.80;;;3.10;;
85877;SDS011;76393;44.098;3.072;2024-02-21T00:08:01;11.27;;;3.28;;
85877;SDS011;76393;44.098;3.072;2024-02-21T00:10:28;9.45;;;3.20;;
85877;SDS011;76393;44.098;3.072;2024-02-21T00:12:54;8.05;;;3.28;;
85877;SDS011;76393;44.098;3.072;2024-02-21T00:15:19;9.35;;;3.40;;
85877;SDS011;76393;44.098;3.072;2024-02-21T00:17:45;8.82;;;3.58;;
85877;SDS011;76393;44.098;3.072;2024-02-21T00:20:11;7.43;;;2.88;;
85877;SDS011;76393;44.098;3.072;2024-02-21T00:22:36;6.72;;;2.78;;
85877;SDS011;76393;44.098;3.072;2024-02-21T00:25:03;7.95;;;2.55;;
85877;SDS011;76393;44.098;3.072;2024-02-21T00:27:28;8.38;;;2.63;;
85877;SDS011;76393;44.098;3.072;2024-02-21T00:29:54;12.27;;;4.53;;
85877;SDS011;76393;44.098;3.072;2024-02-21T00:32:19;17.48;;;5.57;;
85877;SDS011;76393;44.098;3.072;2024-02-21T00:34:45;29.77;;;10.70;;
85877;SDS011;76393;44.098;3.072;2024-02-21T00:37:11;15.48;;;6.43;;
85877;SDS011;76393;44.098;3.072;2024-02-21T00:39:37;13.05;;;5.07;;
85877;SDS011;76393;44.098;3.072;2024-02-21T00:42:02;7.55;;;3.03;;
85877;SDS011;76393;44.098;3.072;2024-02-21T00:44:28;8.00;;;3.17;;
85877;SDS011;76393;44.098;3.072;2024-02-21T00:46:53;10.65;;;4.22;;
85877;SDS011;76393;44.098;3.072;2024-02-21T00:49:19;8.38;;;3.55;;
85877;SDS011;76393;44.098;3.072;2024-02-21T00:51:44;11.90;;;4.03;;
85877;SDS011;76393;44.098;3.072;2024-02-21T00:54:10;7.95;;;3.17;;
85877;SDS011;76393;44.098;3.072;2024-02-21T00:56:36;6.22;;;2.72;;
85877;SDS011;76393;44.098;3.072;2024-02-21T00:59:01;5.97;;;2.55;;
85877;SDS011;76393;44.098;3.072;2024-02-21T01:01:27;5.80;;;2.38;;
85877;SDS011;76393;44.098;3.072;2024-02-21T01:03:52;7.03;;;2.50;;
85877;SDS011;76393;44.098;3.072;2024-02-21T01:06:20;6.10;;;2.42;;
85877;SDS011;76393;44.098;3.072;2024-02-21T01:08:46;7.78;;;2.60;;
85877;SDS011;76393;44.098;3.072;2024-02-21T01:11:15;8.15;;;3.47;;
85877;SDS011;76393;44.098;3.072;2024-02-21T01:13:41;11.27;;;4.47;;
85877;SDS011;76393;44.098;3.072;2024-02-21T01:16:07;8.73;;;3.72;;
85877;SDS011;76393;44.098;3.072;2024-02-21T01:18:39;10.27;;;4.00;;
85877;SDS011;76393;44.098;3.072;2024-02-21T01:21:04;11.05;;;3.65;;
85877;SDS011;76393;44.098;3.072;2024-02-21T01:23:34;9.85;;;3.55;;
85877;SDS011;76393;44.098;3.072;2024-02-21T01:26:00;8.93;;;3.33;;
85877;SDS011;76393;44.098;3.072;2024-02-21T01:28:25;7.05;;;3.20;;
85877;SDS011;76393;44.098;3.072;2024-02-21T01:30:51;9.25;;;2.97;;
85877;SDS011;76393;44.098;3.072;2024-02-21T01:33:17;8.27;;;3.33;;
85877;SDS011;76393;44.098;3.072;2024-02-21T01:35:42;11.20;;;4.07;;
85877;SDS011;76393;44.098;3.072;2024-02-21T01:38:08;10.80;;;3.67;;
85877;SDS011;76393;44.098;3.072;2024-02-21T01:40:33;10.10;;;3.95;;
85877;SDS011;76393;44.098;3.072;2024-02-21T01:43:00;12.65;;;4.38;;
85877;SDS011;76393;44.098;3.072;2024-02-21T01:45:26;10.85;;;4.15;;
85877;SDS011;76393;44.098;3.072;2024-02-21T01:47:51;11.93;;;4.00;;
85877;SDS011;76393;44.098;3.072;2024-02-21T01:50:17;8.50;;;3.67;;
85877;SDS011;76393;44.098;3.072;2024-02-21T01:52:43;9.68;;;3.72;;
85877;SDS011;76393;44.098;3.072;2024-02-21T01:55:12;10.18;;;4.45;;
85877;SDS011;76393;44.098;3.072;2024-02-21T01:57:38;10.45;;;4.20;;
85877;SDS011;76393;44.098;3.072;2024-02-21T02:00:05;8.60;;;3.90;;
85877;SDS011;76393;44.098;3.072;2024-02-21T02:02:32;8.18;;;3.38;;
85877;SDS011;76393;44.098;3.072;2024-02-21T02:04:57;8.98;;;3.53;;
85877;SDS011;76393;44.098;3.072;2024-02-21T02:07:23;8.88;;;3.22;;
85877;SDS011;76393;44.098;3.072;2024-02-21T02:09:49;12.98;;;3.97;;
85877;SDS011;76393;44.098;3.072;2024-02-21T02:12:14;8.98;;;3.42;;
85877;SDS011;76393;44.098;3.072;2024-02-21T02:14:40;5.82;;;2.83;;
85877;SDS011;76393;44.098;3.072;2024-02-21T02:17:05;8.60;;;2.97;;
85877;SDS011;76393;44.098;3.072;2024-02-21T02:19:31;7.25;;;3.00;;
85877;SDS011;76393;44.098;3.072;2024-02-21T02:22:00;5.63;;;3.00;;
85877;SDS011;76393;44.098;3.072;2024-02-21T02:24:34;5.70;;;2.40;;
85877;SDS011;76393;44.098;3.072;2024-02-21T02:27:00;6.22;;;2.85;;
85877;SDS011;76393;44.098;3.072;2024-02-21T02:29:25;6.95;;;2.45;;
85877;SDS011;76393;44.098;3.072;2024-02-21T02:31:51;9.65;;;3.13;;
85877;SDS011;76393;44.098;3.072;2024-02-21T02:34:17;8.98;;;3.25;;
85877;SDS011;76393;44.098;3.072;2024-02-21T02:36:42;9.15;;;2.88;;
85877;SDS011;76393;44.098;3.072;2024-02-21T02:39:08;9.63;;;3.22;;
85877;SDS011;76393;44.098;3.072;2024-02-21T02:41:35;7.85;;;3.28;;
85877;SDS011;76393;44.098;3.072;2024-02-21T02:44:03;4.97;;;2.13;;
85877;SDS011;76393;44.098;3.072;2024-02-21T02:46:29;7.72;;;1.92;;
85877;SDS011;76393;44.098;3.072;2024-02-21T02:48:54;6.53;;;1.70;;
85877;SDS011;76393;44.098;3.072;2024-02-21T02:51:20;3.78;;;1.60;;
85877;SDS011;76393;44.098;3.072;2024-02-21T02:53:45;4.72;;;1.60;;
85877;SDS011;76393;44.098;3.072;2024-02-21T02:56:14;3.15;;;1.38;;
85877;SDS011;76393;44.098;3.072;2024-02-21T02:58:41;4.53;;;1.35;;
85877;SDS011;76393;44.098;3.072;2024-02-21T03:01:08;4.90;;;1.92;;
85877;SDS011;76393;44.098;3.072;2024-02-21T03:03:33;5.55;;;1.50;;
85877;SDS011;76393;44.098;3.072;2024-02-21T03:05:59;9.27;;;2.47;;
85877;SDS011;76393;44.098;3.072;2024-02-21T03:08:24;7.68;;;2.13;;
85877;SDS011;76393;44.098;3.072;2024-02-21T03:10:50;5.32;;;1.80;;
85877;SDS011;76393;44.098;3.072;2024-02-21T03:13:15;3.53;;;1.55;;
85877;SDS011;76393;44.098;3.072;2024-02-21T03:15:41;5.15;;;1.55;;
85877;SDS011;76393;44.098;3.072;2024-02-21T03:18:07;3.08;;;1.40;;
85877;SDS011;76393;44.098;3.072;2024-02-21T03:20:32;3.15;;;1.25;;
85877;SDS011;76393;44.098;3.072;2024-02-21T03:22:58;4.00;;;1.45;;
85877;SDS011;76393;44.098;3.072;2024-02-21T03:25:23;4.25;;;1.30;;
85877;SDS011;76393;44.098;3.072;2024-02-21T03:27:49;5.85;;;2.00;;
85877;SDS011;76393;44.098;3.072;2024-02-21T03:30:14;4.50;;;1.80;;
85877;SDS011;76393;44.098;3.072;2024-02-21T03:32:40;5.30;;;1.40;;
85877;SDS011;76393;44.098;3.072;2024-02-21T03:35:06;5.60;;;2.33;;
85877;SDS011;76393;44.098;3.072;2024-02-21T03:37:31;4.75;;;1.80;;
85877;SDS011;76393;44.098;3.072;2024-02-21T03:39:57;5.63;;;2.00;;
85877;SDS011;76393;44.098;3.072;2024-02-21T03:42:22;4.47;;;1.70;;
85877;SDS011;76393;44.098;3.072;2024-02-21T03:44:48;3.97;;;1.63;;
85877;SDS011;76393;44.098;3.072;2024-02-21T03:47:14;4.68;;;1.70;;
85877;SDS011;76393;44.098;3.072;2024-02-21T03:49:39;4.60;;;1.70;;
85877;SDS011;76393;44.098;3.072;2024-02-21T03:52:05;7.20;;;1.80;;
85877;SDS011;76393;44.098;3.072;2024-02-21T03:54:30;6.53;;;1.40;;
85877;SDS011;76393;44.098;3.072;2024-02-21T03:56:56;4.72;;;1.65;;
85877;SDS011;76393;44.098;3.072;2024-02-21T03:59:22;6.00;;;1.48;;
85877;SDS011;76393;44.098;3.072;2024-02-21T04:01:51;4.05;;;1.50;;
85877;SDS011;76393;44.098;3.072;2024-02-21T04:04:17;3.90;;;1.40;;
85877;SDS011;76393;44.098;3.072;2024-02-21T04:06:47;3.63;;;1.73;;
85877;SDS011;76393;44.098;3.072;2024-02-21T04:09:13;5.38;;;2.20;;
85877;SDS011;76393;44.098;3.072;2024-02-21T04:11:38;6.15;;;1.95;;
85877;SDS011;76393;44.098;3.072;2024-02-21T04:14:04;5.65;;;2.00;;
85877;SDS011;76393;44.098;3.072;2024-02-21T04:16:29;5.15;;;2.20;;
85877;SDS011;76393;44.098;3.072;2024-02-21T04:18:55;5.03;;;2.20;;
85877;SDS011;76393;44.098;3.072;2024-02-21T04:21:20;5.25;;;1.55;;
85877;SDS011;76393;44.098;3.072;2024-02-21T04:23:46;6.57;;;1.83;;
85877;SDS011;76393;44.098;3.072;2024-02-21T04:26:11;3.72;;;1.40;;
85877;SDS011;76393;44.098;3.072;2024-02-21T04:28:37;6.30;;;1.58;;
85877;SDS011;76393;44.098;3.072;2024-02-21T04:31:03;3.70;;;1.50;;
85877;SDS011;76393;44.098;3.072;2024-02-21T04:33:32;4.07;;;1.70;;
85877;SDS011;76393;44.098;3.072;2024-02-21T04:35:57;4.35;;;1.65;;
85877;SDS011;76393;44.098;3.072;2024-02-21T04:38:26;4.53;;;1.60;;
85877;SDS011;76393;44.098;3.072;2024-02-21T04:40:52;6.07;;;1.35;;
85877;SDS011;76393;44.098;3.072;2024-02-21T04:43:17;3.15;;;1.33;;
85877;SDS011;76393;44.098;3.072;2024-02-21T04:45:43;6.15;;;1.80;;
85877;SDS011;76393;44.098;3.072;2024-02-21T04:48:08;4.40;;;1.73;;
85877;SDS011;76393;44.098;3.072;2024-02-21T04:50:33;4.93;;;1.73;;
85877;SDS011;76393;44.098;3.072;2024-02-21T04:52:59;6.43;;;1.50;;
85877;SDS011;76393;44.098;3.072;2024-02-21T04:55:24;6.88;;;1.58;;
85877;SDS011;76393;44.098;3.072;2024-02-21T04:57:50;4.90;;;1.50;;
85877;SDS011;76393;44.098;3.072;2024-02-21T05:00:15;4.55;;;1.45;;
85877;SDS011;76393;44.098;3.072;2024-02-21T05:02:41;3.35;;;1.35;;
85877;SDS011;76393;44.098;3.072;2024-02-21T05:05:07;4.45;;;1.50;;
85877;SDS011;76393;44.098;3.072;2024-02-21T05:07:34;4.00;;;1.42;;
85877;SDS011;76393;44.098;3.072;2024-02-21T05:10:00;6.68;;;1.88;;
85877;SDS011;76393;44.098;3.072;2024-02-21T05:12:26;4.40;;;1.40;;
85877;SDS011;76393;44.098;3.072;2024-02-21T05:14:51;3.05;;;1.30;;
85877;SDS011;76393;44.098;3.072;2024-02-21T05:17:17;3.55;;;1.23;;
85877;SDS011;76393;44.098;3.072;2024-02-21T05:19:42;2.65;;;1.13;;
85877;SDS011;76393;44.098;3.072;2024-02-21T05:22:08;4.65;;;1.40;;
85877;SDS011;76393;44.098;3.072;2024-02-21T05:24:33;3.92;;;1.40;;
85877;SDS011;76393;44.098;3.072;2024-02-21T05:26:59;3.55;;;1.63;;
85877;SDS011;76393;44.098;3.072;2024-02-21T05:29:24;4.97;;;1.75;;
85877;SDS011;76393;44.098;3.072;2024-02-21T05:34:15;6.13;;;2.10;;
85877;SDS011;76393;44.098;3.072;2024-02-21T05:36:41;6.88;;;2.28;;
85877;SDS011;76393;44.098;3.072;2024-02-21T05:39:06;4.75;;;1.73;;
85877;SDS011;76393;44.098;3.072;2024-02-21T05:41:32;4.47;;;1.60;;
85877;SDS011;76393;44.098;3.072;2024-02-21T05:43:57;5.45;;;1.42;;
85877;SDS011;76393;44.098;3.072;2024-02-21T05:46:23;4.32;;;1.65;;
85877;SDS011;76393;44.098;3.072;2024-02-21T05:48:48;4.57;;;1.55;;
85877;SDS011;76393;44.098;3.072;2024-02-21T05:51:14;3.83;;;1.60;;
85877;SDS011;76393;44.098;3.072;2024-02-21T05:53:40;6.00;;;1.52;;
85877;SDS011;76393;44.098;3.072;2024-02-21T05:56:12;3.78;;;1.48;;
85877;SDS011;76393;44.098;3.072;2024-02-21T05:58:38;3.50;;;1.30;;
85877;SDS011;76393;44.098;3.072;2024-02-21T06:01:04;4.00;;;1.25;;
85877;SDS011;76393;44.098;3.072;2024-02-21T06:03:32;4.05;;;1.50;;
85877;SDS011;76393;44.098;3.072;2024-02-21T06:05:58;5.60;;;1.52;;
85877;SDS011;76393;44.098;3.072;2024-02-21T06:08:24;4.00;;;1.50;;
85877;SDS011;76393;44.098;3.072;2024-02-21T06:10:49;5.78;;;1.58;;
85877;SDS011;76393;44.098;3.072;2024-02-21T06:13:19;4.63;;;1.35;;
85877;SDS011;76393;44.098;3.072;2024-02-21T06:15:46;6.18;;;2.08;;
85877;SDS011;76393;44.098;3.072;2024-02-21T06:18:12;9.32;;;4.18;;
85877;SDS011;76393;44.098;3.072;2024-02-21T06:20:37;8.98;;;3.78;;
85877;SDS011;76393;44.098;3.072;2024-02-21T06:23:05;6.90;;;2.30;;
85877;SDS011;76393;44.098;3.072;2024-02-21T06:25:31;4.45;;;1.80;;
85877;SDS011;76393;44.098;3.072;2024-02-21T06:27:57;5.82;;;2.08;;
85877;SDS011;76393;44.098;3.072;2024-02-21T06:30:22;6.05;;;2.47;;
85877;SDS011;76393;44.098;3.072;2024-02-21T06:32:48;6.53;;;2.30;;
85877;SDS011;76393;44.098;3.072;2024-02-21T06:35:13;9.32;;;3.20;;
85877;SDS011;76393;44.098;3.072;2024-02-21T06:37:39;8.82;;;2.80;;
85877;SDS011;76393;44.098;3.072;2024-02-21T06:40:05;7.68;;;2.65;;
85877;SDS011;76393;44.098;3.072;2024-02-21T06:42:31;7.25;;;3.15;;
85877;SDS011;76393;44.098;3.072;2024-02-21T06:44:56;7.85;;;3.08;;
85877;SDS011;76393;44.098;3.072;2024-02-21T06:47:22;7.35;;;2.03;;
85877;SDS011;76393;44.098;3.072;2024-02-21T06:49:50;4.38;;;1.90;;
85877;SDS011;76393;44.098;3.072;2024-02-21T06:52:19;5.90;;;1.85;;
85877;SDS011;76393;44.098;3.072;2024-02-21T06:54:48;7.28;;;1.52;;
85877;SDS011;76393;44.098;3.072;2024-02-21T06:59:41;3.35;;;1.42;;
85877;SDS011;76393;44.098;3.072;2024-02-21T07:02:07;5.88;;;1.92;;
85877;SDS011;76393;44.098;3.072;2024-02-21T07:04:33;3.92;;;1.60;;
85877;SDS011;76393;44.098;3.072;2024-02-21T07:06:59;6.38;;;2.03;;
85877;SDS011;76393;44.098;3.072;2024-02-21T07:09:24;7.82;;;2.63;;
85877;SDS011;76393;44.098;3.072;2024-02-21T07:11:50;8.38;;;2.65;;
85877;SDS011;76393;44.098;3.072;2024-02-21T07:14:15;8.23;;;2.85;;
85877;SDS011;76393;44.098;3.072;2024-02-21T07:16:41;6.93;;;2.15;;
85877;SDS011;76393;44.098;3.072;2024-02-21T07:19:06;5.38;;;1.83;;
85877;SDS011;76393;44.098;3.072;2024-02-21T07:21:32;6.95;;;2.10;;
85877;SDS011;76393;44.098;3.072;2024-02-21T07:23:58;4.85;;;1.75;;
85877;SDS011;76393;44.098;3.072;2024-02-21T07:26:23;5.57;;;1.88;;
85877;SDS011;76393;44.098;3.072;2024-02-21T07:28:49;6.25;;;2.22;;
85877;SDS011;76393;44.098;3.072;2024-02-21T07:31:15;5.88;;;2.33;;
85877;SDS011;76393;44.098;3.072;2024-02-21T07:33:40;7.30;;;2.20;;
85877;SDS011;76393;44.098;3.072;2024-02-21T07:36:07;7.72;;;1.73;;
85877;SDS011;76393;44.098;3.072;2024-02-21T07:38:33;6.15;;;1.73;;
85877;SDS011;76393;44.098;3.072;2024-02-21T07:40:59;4.28;;;1.70;;
85877;SDS011;76393;44.098;3.072;2024-02-21T07:43:25;4.38;;;2.13;;
85877;SDS011;76393;44.098;3.072;2024-02-21T07:45:51;4.18;;;1.45;;
85877;SDS011;76393;44.098;3.072;2024-02-21T07:48:18;6.70;;;1.83;;
85877;SDS011;76393;44.098;3.072;2024-02-21T07:50:44;5.85;;;1.85;;
85877;SDS011;76393;44.098;3.072;2024-02-21T07:53:10;5.72;;;1.98;;
85877;SDS011;76393;44.098;3.072;2024-02-21T07:55:35;5.55;;;2.15;;
85877;SDS011;76393;44.098;3.072;2024-02-21T07:58:01;3.58;;;1.73;;
85877;SDS011;76393;44.098;3.072;2024-02-21T08:00:26;5.82;;;2.15;;
85877;SDS011;76393;44.098;3.072;2024-02-21T08:02:52;5.00;;;1.85;;
85877;SDS011;76393;44.098;3.072;2024-02-21T08:05:18;7.43;;;2.22;;
85877;SDS011;76393;44.098;3.072;2024-02-21T08:07:43;5.90;;;1.98;;
85877;SDS011;76393;44.098;3.072;2024-02-21T08:10:09;6.93;;;2.00;;
85877;SDS011;76393;44.098;3.072;2024-02-21T08:12:34;7.68;;;2.13;;
85877;SDS011;76393;44.098;3.072;2024-02-21T08:15:00;9.60;;;3.75;;
85877;SDS011;76393;44.098;3.072;2024-02-21T08:17:26;7.93;;;3.17;;
85877;SDS011;76393;44.098;3.072;2024-02-21T08:19:51;8.30;;;3.17;;
85877;SDS011;76393;44.098;3.072;2024-02-21T08:22:17;7.03;;;2.97;;
85877;SDS011;76393;44.098;3.072;2024-02-21T08:24:42;7.35;;;2.88;;
85877;SDS011;76393;44.098;3.072;2024-02-21T08:27:08;6.35;;;2.72;;
85877;SDS011;76393;44.098;3.072;2024-02-21T08:29:34;6.32;;;2.03;;
85877;SDS011;76393;44.098;3.072;2024-02-21T08:31:59;5.85;;;2.53;;
85877;SDS011;76393;44.098;3.072;2024-02-21T08:34:25;8.65;;;2.13;;
85877;SDS011;76393;44.098;3.072;2024-02-21T08:36:50;6.43;;;2.30;;
85877;SDS011;76393;44.098;3.072;2024-02-21T08:39:16;5.50;;;2.42;;
85877;SDS011;76393;44.098;3.072;2024-02-21T08:41:42;7.25;;;2.42;;
85877;SDS011;76393;44.098;3.072;2024-02-21T08:44:07;6.60;;;2.75;;
85877;SDS011;76393;44.098;3.072;2024-02-21T08:46:33;5.30;;;1.90;;
85877;SDS011;76393;44.098;3.072;2024-02-21T08:48:59;5.60;;;2.10;;
85877;SDS011;76393;44.098;3.072;2024-02-21T08:51:24;5.55;;;2.03;;
85877;SDS011;76393;44.098;3.072;2024-02-21T08:53:51;5.65;;;2.08;;
85877;SDS011;76393;44.098;3.072;2024-02-21T08:56:18;4.10;;;1.67;;
85877;SDS011;76393;44.098;3.072;2024-02-21T08:58:44;7.50;;;2.10;;
85877;SDS011;76393;44.098;3.072;2024-02-21T09:01:10;3.85;;;2.00;;
85877;SDS011;76393;44.098;3.072;2024-02-21T09:03:38;3.47;;;1.38;;
85877;SDS011;76393;44.098;3.072;2024-02-21T09:06:07;4.63;;;1.40;;
85877;SDS011;76393;44.098;3.072;2024-02-21T09:08:33;3.72;;;1.23;;
85877;SDS011;76393;44.098;3.072;2024-02-21T09:11:02;4.25;;;1.40;;
85877;SDS011;76393;44.098;3.072;2024-02-21T09:13:28;4.25;;;1.52;;
85877;SDS011;76393;44.098;3.072;2024-02-21T09:15:55;4.97;;;1.73;;
85877;SDS011;76393;44.098;3.072;2024-02-21T09:18:20;6.13;;;1.63;;
85877;SDS011;76393;44.098;3.072;2024-02-21T09:20:46;4.85;;;1.58;;
85877;SDS011;76393;44.098;3.072;2024-02-21T09:23:13;3.80;;;1.42;;
85877;SDS011;76393;44.098;3.072;2024-02-21T09:25:38;3.63;;;1.42;;
85877;SDS011;76393;44.098;3.072;2024-02-21T09:28:05;5.05;;;1.40;;
85877;SDS011;76393;44.098;3.072;2024-02-21T09:30:32;3.25;;;1.40;;
85877;SDS011;76393;44.098;3.072;2024-02-21T09:32:58;3.22;;;1.30;;
85877;SDS011;76393;44.098;3.072;2024-02-21T09:35:27;3.75;;;1.60;;
85877;SDS011;76393;44.098;3.072;2024-02-21T09:37:53;3.63;;;1.50;;
85877;SDS011;76393;44.098;3.072;2024-02-21T09:40:20;4.07;;;1.38;;
85877;SDS011;76393;44.098;3.072;2024-02-21T09:42:46;6.72;;;1.65;;
85877;SDS011;76393;44.098;3.072;2024-02-21T09:47:52;2.40;;;1.05;;
85877;SDS011;76393;44.098;3.072;2024-02-21T09:50:23;6.00;;;1.38;;
85877;SDS011;76393;44.098;3.072;2024-02-21T09:52:50;5.22;;;1.40;;
85877;SDS011;76393;44.098;3.072;2024-02-21T09:55:17;3.20;;;1.23;;
85877;SDS011;76393;44.098;3.072;2024-02-21T09:57:44;3.75;;;1.30;;
85877;SDS011;76393;44.098;3.072;2024-02-21T10:00:10;6.63;;;1.30;;
85877;SDS011;76393;44.098;3.072;2024-02-21T10:02:36;6.53;;;1.42;;
85877;SDS011;76393;44.098;3.072;2024-02-21T10:05:02;5.82;;;1.40;;
85877;SDS011;76393;44.098;3.072;2024-02-21T10:07:29;4.43;;;1.30;;
85877;SDS011;76393;44.098;3.072;2024-02-21T10:10:05;4.22;;;1.02;;
85877;SDS011;76393;44.098;3.072;2024-02-21T10:12:31;4.70;;;1.00;;
85877;SDS011;76393;44.098;3.072;2024-02-21T10:15:03;4.78;;;1.33;;
85877;SDS011;76393;44.098;3.072;2024-02-21T10:17:30;3.00;;;1.00;;
85877;SDS011;76393;44.098;3.072;2024-02-21T10:20:06;2.90;;;1.10;;
85877;SDS011;76393;44.098;3.072;2024-02-21T10:22:33;4.75;;;1.75;;
85877;SDS011;76393;44.098;3.072;2024-02-21T10:25:07;15.00;;;5.85;;
85877;SDS011;76393;44.098;3.072;2024-02-21T10:27:36;10.10;;;2.63;;
85877;SDS011;76393;44.098;3.072;2024-02-21T10:30:02;7.07;;;2.03;;
85877;SDS011;76393;44.098;3.072;2024-02-21T10:32:28;8.02;;;2.20;;
85877;SDS011;76393;44.098;3.072;2024-02-21T10:35:02;7.20;;;1.52;;
85877;SDS011;76393;44.098;3.072;2024-02-21T10:37:31;4.72;;;1.30;;
85877;SDS011;76393;44.098;3.072;2024-02-21T10:39:57;4.78;;;1.50;;
85877;SDS011;76393;44.098;3.072;2024-02-21T10:42:23;6.60;;;1.50;;
85877;SDS011;76393;44.098;3.072;2024-02-21T10:44:55;7.32;;;1.48;;
85877;SDS011;76393;44.098;3.072;2024-02-21T10:47:25;6.25;;;1.25;;
85877;SDS011;76393;44.098;3.072;2024-02-21T10:49:57;4.63;;;1.15;;
85877;SDS011;76393;44.098;3.072;2024-02-21T10:52:43;6.35;;;1.63;;
85877;SDS011;76393;44.098;3.072;2024-02-21T10:55:36;3.33;;;1.10;;
85877;SDS011;76393;44.098;3.072;2024-02-21T10:58:04;3.20;;;1.02;;
85877;SDS011;76393;44.098;3.072;2024-02-21T11:00:30;7.40;;;1.15;;
85877;SDS011;76393;44.098;3.072;2024-02-21T11:02:56;2.97;;;1.08;;
85877;SDS011;76393;44.098;3.072;2024-02-21T11:05:23;3.72;;;1.00;;
85877;SDS011;76393;44.098;3.072;2024-02-21T11:07:50;3.85;;;1.10;;
85877;SDS011;76393;44.098;3.072;2024-02-21T11:10:23;7.60;;;1.20;;
85877;SDS011;76393;44.098;3.072;2024-02-21T11:12:49;4.45;;;1.08;;
85877;SDS011;76393;44.098;3.072;2024-02-21T11:15:18;3.15;;;1.10;;
85877;SDS011;76393;44.098;3.072;2024-02-21T11:17:53;3.40;;;1.10;;
85877;SDS011;76393;44.098;3.072;2024-02-21T11:20:19;3.60;;;1.13;;
85877;SDS011;76393;44.098;3.072;2024-02-21T11:22:45;3.75;;;1.02;;
85877;SDS011;76393;44.098;3.072;2024-02-21T11:25:10;3.60;;;1.08;;
85877;SDS011;76393;44.098;3.072;2024-02-21T11:27:45;3.10;;;1.20;;
85877;SDS011;76393;44.098;3.072;2024-02-21T11:30:11;3.22;;;1.15;;
85877;SDS011;76393;44.098;3.072;2024-02-21T11:32:37;4.25;;;1.02;;
85877;SDS011;76393;44.098;3.072;2024-02-21T11:35:03;3.83;;;1.15;;
85877;SDS011;76393;44.098;3.072;2024-02-21T11:37:33;3.55;;;1.20;;
85877;SDS011;76393;44.098;3.072;2024-02-21T11:40:02;3.67;;;1.17;;
85877;SDS011;76393;44.098;3.072;2024-02-21T11:42:28;2.67;;;1.08;;
85877;SDS011;76393;44.098;3.072;2024-02-21T11:44:54;1.90;;;0.80;;
85877;SDS011;76393;44.098;3.072;2024-02-21T11:47:24;3.30;;;0.93;;
85877;SDS011;76393;44.098;3.072;2024-02-21T11:49:49;4.05;;;1.00;;
85877;SDS011;76393;44.098;3.072;2024-02-21T11:52:19;4.22;;;0.90;;
85877;SDS011;76393;44.098;3.072;2024-02-21T11:54:50;3.42;;;1.00;;
85877;SDS011;76393;44.098;3.072;2024-02-21T11:57:16;2.97;;;0.80;;
85877;SDS011;76393;44.098;3.072;2024-02-21T11:59:43;6.65;;;1.38;;
85877;SDS011;76393;44.098;3.072;2024-02-21T12:02:09;3.80;;;1.00;;
85877;SDS011;76393;44.098;3.072;2024-02-21T12:04:35;2.97;;;1.17;;
85877;SDS011;76393;44.098;3.072;2024-02-21T12:07:01;3.47;;;1.00;;
85877;SDS011;76393;44.098;3.072;2024-02-21T12:09:28;3.50;;;0.90;;
85877;SDS011;76393;44.098;3.072;2024-02-21T12:11:58;2.45;;;0.98;;
85877;SDS011;76393;44.098;3.072;2024-02-21T12:14:25;3.78;;;1.05;;
85877;SDS011;76393;44.098;3.072;2024-02-21T12:16:51;4.22;;;1.23;;
85877;SDS011;76393;44.098;3.072;2024-02-21T12:19:17;5.40;;;1.98;;
85877;SDS011;76393;44.098;3.072;2024-02-21T12:21:42;2.70;;;1.00;;
85877;SDS011;76393;44.098;3.072;2024-02-21T12:24:42;3.55;;;0.95;;
85877;SDS011;76393;44.098;3.072;2024-02-21T12:27:03;1.83;;;0.73;;
85877;SDS011;76393;44.098;3.072;2024-02-21T12:29:29;2.92;;;0.63;;
85877;SDS011;76393;44.098;3.072;2024-02-21T12:31:55;2.80;;;0.80;;
85877;SDS011;76393;44.098;3.072;2024-02-21T12:34:21;3.13;;;0.75;;
85877;SDS011;76393;44.098;3.072;2024-02-21T12:36:47;3.53;;;0.93;;
85877;SDS011;76393;44.098;3.072;2024-02-21T12:39:12;2.90;;;1.00;;
85877;SDS011;76393;44.098;3.072;2024-02-21T12:41:38;2.63;;;0.85;;
85877;SDS011;76393;44.098;3.072;2024-02-21T12:44:06;1.85;;;0.70;;
85877;SDS011;76393;44.098;3.072;2024-02-21T12:46:36;4.30;;;1.02;;
85877;SDS011;76393;44.098;3.072;2024-02-21T12:49:02;2.55;;;0.95;;
85877;SDS011;76393;44.098;3.072;2024-02-21T12:51:28;2.78;;;0.82;;
85877;SDS011;76393;44.098;3.072;2024-02-21T12:53:54;2.75;;;0.77;;
85877;SDS011;76393;44.098;3.072;2024-02-21T12:56:20;1.88;;;0.60;;
85877;SDS011;76393;44.098;3.072;2024-02-21T12:58:46;2.58;;;1.00;;
85877;SDS011;76393;44.098;3.072;2024-02-21T13:01:11;2.78;;;0.70;;
85877;SDS011;76393;44.098;3.072;2024-02-21T13:03:37;3.97;;;0.73;;
85877;SDS011;76393;44.098;3.072;2024-02-21T13:06:03;3.08;;;0.80;;
85877;SDS011;76393;44.098;3.072;2024-02-21T13:08:29;2.65;;;0.80;;
85877;SDS011;76393;44.098;3.072;2024-02-21T13:10:55;2.78;;;0.73;;
85877;SDS011;76393;44.098;3.072;2024-02-21T13:13:20;1.67;;;0.60;;
85877;SDS011;76393;44.098;3.072;2024-02-21T13:15:46;3.08;;;0.68;;
85877;SDS011;76393;44.098;3.072;2024-02-21T13:18:12;2.83;;;0.70;;
85877;SDS011;76393;44.098;3.072;2024-02-21T13:20:37;3.10;;;0.80;;
85877;SDS011;76393;44.098;3.072;2024-02-21T13:23:03;2.72;;;0.80;;
85877;SDS011;76393;44.098;3.072;2024-02-21T13:25:29;2.13;;;0.50;;
85877;SDS011;76393;44.098;3.072;2024-02-21T13:27:55;3.47;;;0.70;;
85877;SDS011;76393;44.098;3.072;2024-02-21T13:30:21;2.08;;;0.50;;
85877;SDS011;76393;44.098;3.072;2024-02-21T13:32:47;2.90;;;0.75;;
85877;SDS011;76393;44.098;3.072;2024-02-21T13:35:13;3.03;;;0.60;;
85877;SDS011;76393;44.098;3.072;2024-02-21T13:37:40;1.67;;;0.50;;
85877;SDS011;76393;44.098;3.072;2024-02-21T13:40:06;2.40;;;0.60;;
85877;SDS011;76393;44.098;3.072;2024-02-21T13:44:59;2.08;;;0.57;;
85877;SDS011;76393;44.098;3.072;2024-02-21T13:47:25;1.52;;;0.40;;
85877;SDS011;76393;44.098;3.072;2024-02-21T13:49:50;1.65;;;0.50;;
85877;SDS011;76393;44.098;3.072;2024-02-21T13:52:16;1.70;;;0.35;;
85877;SDS011;76393;44.098;3.072;2024-02-21T13:54:42;4.20;;;0.70;;
85877;SDS011;76393;44.098;3.072;2024-02-21T13:57:07;3.85;;;0.65;;
85877;SDS011;76393;44.098;3.072;2024-02-21T13:59:34;2.28;;;0.40;;
85877;SDS011;76393;44.098;3.072;2024-02-21T14:01:59;2.78;;;0.40;;
85877;SDS011;76393;44.098;3.072;2024-02-21T14:04:25;1.30;;;0.40;;
85877;SDS011;76393;44.098;3.072;2024-02-21T14:06:50;4.78;;;0.60;;
85877;SDS011;76393;44.098;3.072;2024-02-21T14:09:16;1.92;;;0.50;;
85877;SDS011;76393;44.098;3.072;2024-02-21T14:11:41;2.75;;;0.50;;
85877;SDS011;76393;44.098;3.072;2024-02-21T14:14:07;0.95;;;0.38;;
85877;SDS011;76393;44.098;3.072;2024-02-21T14:16:32;3.05;;;0.47;;
85877;SDS011;76393;44.098;3.072;2024-02-21T14:18:58;2.88;;;0.40;;
85877;SDS011;76393;44.098;3.072;2024-02-21T14:21:24;1.55;;;0.40;;
85877;SDS011;76393;44.098;3.072;2024-02-21T14:23:49;1.73;;;0.40;;
85877;SDS011;76393;44.098;3.072;2024-02-21T14:26:15;1.45;;;0.40;;
85877;SDS011;76393;44.098;3.072;2024-02-21T14:28:41;1.65;;;0.47;;
85877;SDS011;76393;44.098;3.072;2024-02-21T14:31:07;0.52;;;0.30;;
85877;SDS011;76393;44.098;3.072;2024-02-21T14:33:34;3.80;;;0.85;;
85877;SDS011;76393;44.098;3.072;2024-02-21T14:36:00;0.95;;;0.30;;
85877;SDS011;76393;44.098;3.072;2024-02-21T14:38:27;1.30;;;0.22;;
85877;SDS011;76393;44.098;3.072;2024-02-21T14:40:53;1.25;;;0.30;;
85877;SDS011;76393;44.098;3.072;2024-02-21T14:43:19;1.25;;;0.30;;
85877;SDS011;76393;44.098;3.072;2024-02-21T14:45:46;1.63;;;0.35;;
85877;SDS011;76393;44.098;3.072;2024-02-21T14:48:15;0.98;;;0.28;;
85877;SDS011;76393;44.098;3.072;2024-02-21T14:50:41;1.17;;;0.40;;
85877;SDS011;76393;44.098;3.072;2024-02-21T14:53:07;2.17;;;0.30;;